createdAt,value
2018-05-09T00:01:00.190Z,17.90
2018-05-09T00:03:26.733Z,17.80
2018-05-09T00:05:53.859Z,17.70
2018-05-09T00:08:21.101Z,17.70
2018-05-09T00:10:47.564Z,17.60
2018-05-09T00:13:14.066Z,17.60
2018-05-09T00:15:40.470Z,17.60
2018-05-09T00:18:06.949Z,17.60
2018-05-09T00:20:34.133Z,17.50
2018-05-09T00:23:00.597Z,17.50
2018-05-09T00:25:27.095Z,17.50
2018-05-09T00:27:53.561Z,17.50
2018-05-09T00:30:20.029Z,17.50
2018-05-09T00:32:46.522Z,17.40
2018-05-09T00:35:12.963Z,17.40
2018-05-09T00:37:39.417Z,17.40
2018-05-09T00:40:05.852Z,17.40
2018-05-09T00:42:32.266Z,17.30
2018-05-09T00:45:05.755Z,17.30
2018-05-09T00:47:33.737Z,17.30
2018-05-09T00:50:00.213Z,17.30
2018-05-09T00:52:26.606Z,17.30
2018-05-09T00:54:53.869Z,17.20
2018-05-09T00:57:21.126Z,17.20
2018-05-09T00:59:47.654Z,17.10
2018-05-09T01:02:14.056Z,17.10
2018-05-09T01:04:40.494Z,17.10
2018-05-09T01:07:07.736Z,17.00
2018-05-09T01:09:34.147Z,17.00
2018-05-09T01:12:00.569Z,17.00
2018-05-09T01:14:27.016Z,16.90
2018-05-09T01:16:53.430Z,16.90
2018-05-09T01:19:20.644Z,16.90
2018-05-09T01:21:47.127Z,16.90
2018-05-09T01:24:14.317Z,16.90
2018-05-09T01:26:40.759Z,16.80
2018-05-09T01:29:07.219Z,16.80
2018-05-09T01:31:33.621Z,16.90
2018-05-09T01:34:00.844Z,16.90
2018-05-09T01:36:27.326Z,16.80
2018-05-09T01:38:54.526Z,16.80
2018-05-09T01:41:21.697Z,16.80
2018-05-09T01:43:48.148Z,16.80
2018-05-09T01:46:14.619Z,16.90
2018-05-09T01:48:41.772Z,16.80
2018-05-09T01:51:08.218Z,16.80
2018-05-09T01:53:34.623Z,16.90
2018-05-09T01:56:01.809Z,16.80
2018-05-09T01:58:28.293Z,16.80
2018-05-09T02:00:54.695Z,16.80
2018-05-09T02:03:21.140Z,16.80
2018-05-09T02:05:47.714Z,16.70
2018-05-09T02:08:14.104Z,16.80
2018-05-09T02:10:40.514Z,16.70
2018-05-09T02:13:06.963Z,16.70
2018-05-09T02:15:33.389Z,16.70
2018-05-09T02:17:59.823Z,16.70
2018-05-09T02:20:26.299Z,16.60
2018-05-09T02:22:52.836Z,16.60
2018-05-09T02:25:19.341Z,16.60
2018-05-09T02:27:45.807Z,16.60
2018-05-09T02:30:12.243Z,16.60
2018-05-09T02:32:39.425Z,16.60
2018-05-09T02:35:05.875Z,16.60
2018-05-09T02:37:32.405Z,16.60
2018-05-09T02:39:58.871Z,16.50
2018-05-09T02:42:25.395Z,16.50
2018-05-09T02:44:51.863Z,16.50
2018-05-09T02:47:18.272Z,16.50
2018-05-09T02:49:44.713Z,16.50
2018-05-09T02:52:11.880Z,16.40
2018-05-09T02:54:38.300Z,16.40
2018-05-09T02:57:04.758Z,16.40
2018-05-09T02:59:31.159Z,16.30
2018-05-09T03:01:57.639Z,16.30
2018-05-09T03:04:24.848Z,16.30
2018-05-09T03:06:51.239Z,16.20
2018-05-09T03:09:17.711Z,16.30
2018-05-09T03:11:44.934Z,16.20
2018-05-09T03:14:11.334Z,16.20
2018-05-09T03:16:38.477Z,16.20
2018-05-09T03:19:05.682Z,16.10
2018-05-09T03:21:32.129Z,16.10
2018-05-09T03:23:58.525Z,16.10
2018-05-09T03:26:25.013Z,16.10
2018-05-09T03:28:52.200Z,16.00
2018-05-09T03:31:18.598Z,16.00
2018-05-09T03:33:45.037Z,16.00
2018-05-09T03:36:11.486Z,16.00
2018-05-09T03:38:38.010Z,16.00
2018-05-09T03:41:04.492Z,15.90
2018-05-09T03:43:30.993Z,15.90
2018-05-09T03:45:57.446Z,15.90
2018-05-09T03:48:23.919Z,15.90
2018-05-09T03:50:50.414Z,15.90
2018-05-09T03:53:17.000Z,15.90
2018-05-09T03:55:43.435Z,15.90
2018-05-09T03:58:09.841Z,15.90
2018-05-09T04:00:36.305Z,16.00
2018-05-09T04:03:15.115Z,16.00
2018-05-09T04:05:53.962Z,16.00
2018-05-09T04:08:32.758Z,16.00
2018-05-09T04:11:00.041Z,16.00
2018-05-09T04:13:26.490Z,16.00
2018-05-09T04:15:54.260Z,16.10
2018-05-09T04:18:20.771Z,16.00
2018-05-09T04:20:47.256Z,16.10
2018-05-09T04:23:13.653Z,16.10
2018-05-09T04:25:40.809Z,16.20
2018-05-09T04:28:08.086Z,16.20
2018-05-09T04:30:34.461Z,16.20
2018-05-09T04:33:00.881Z,16.30
2018-05-09T04:35:27.310Z,16.30
2018-05-09T04:37:54.092Z,16.40
2018-05-09T04:40:21.240Z,16.50
2018-05-09T04:42:47.768Z,16.50
2018-05-09T04:45:14.221Z,17.10
2018-05-09T04:47:41.409Z,19.90
2018-05-09T04:50:07.879Z,19.80
2018-05-09T04:52:34.410Z,21.30
2018-05-09T04:55:01.009Z,22.60
2018-05-09T04:57:27.464Z,23.80
2018-05-09T04:59:53.904Z,24.80
2018-05-09T05:02:20.422Z,25.70
2018-05-09T05:04:46.899Z,26.60
2018-05-09T05:07:13.515Z,27.40
2018-05-09T05:09:40.792Z,28.70
2018-05-09T05:12:07.433Z,28.60
2018-05-09T05:14:33.956Z,29.20
2018-05-09T05:17:00.389Z,29.70
2018-05-09T05:19:26.890Z,30.10
2018-05-09T05:21:53.392Z,30.50
2018-05-09T05:24:19.894Z,30.90
2018-05-09T05:26:47.068Z,31.60
2018-05-09T05:29:13.566Z,31.50
2018-05-09T05:31:41.552Z,31.90
2018-05-09T05:34:08.802Z,32.20
2018-05-09T05:36:35.294Z,32.10
2018-05-09T05:39:01.742Z,32.40
2018-05-09T05:41:28.183Z,32.40
2018-05-09T05:43:54.768Z,32.50
2018-05-09T05:46:21.989Z,32.10
2018-05-09T05:48:50.035Z,31.80
2018-05-09T05:54:19.797Z,31.30
2018-05-09T05:56:46.192Z,30.80
2018-05-09T05:59:12.603Z,30.00
2018-05-09T06:01:39.054Z,29.60
2018-05-09T06:04:05.526Z,29.40
2018-05-09T06:06:32.032Z,29.20
2018-05-09T06:08:58.506Z,28.80
2018-05-09T06:11:25.656Z,28.30
2018-05-09T06:13:52.098Z,28.30
2018-05-09T06:16:19.292Z,28.10
2018-05-09T06:18:47.226Z,28.10
2018-05-09T06:21:14.364Z,28.20
2018-05-09T06:23:40.832Z,28.20
2018-05-09T06:29:04.372Z,28.30
2018-05-09T06:31:30.877Z,28.40
2018-05-09T06:33:57.241Z,28.50
2018-05-09T06:36:23.683Z,28.70
2018-05-09T06:38:50.077Z,28.90
2018-05-09T06:41:16.494Z,29.10
2018-05-09T06:43:43.004Z,29.30
2018-05-09T06:46:09.348Z,29.60
2018-05-09T06:48:35.736Z,29.90
2018-05-09T06:51:02.205Z,30.20
2018-05-09T06:53:28.605Z,30.50
2018-05-09T06:58:52.893Z,31.40
2018-05-09T07:01:19.297Z,31.80
2018-05-09T07:03:45.731Z,32.20
2018-05-09T07:06:12.166Z,32.50
2018-05-09T07:08:38.642Z,32.70
2018-05-09T07:11:05.804Z,33.40
2018-05-09T07:16:30.609Z,33.70
2018-05-09T07:18:57.011Z,34.00
2018-05-09T07:21:23.438Z,34.30
2018-05-09T07:23:49.880Z,34.60
2018-05-09T07:26:16.300Z,34.10
2018-05-09T07:28:42.749Z,34.30
2018-05-09T07:31:09.140Z,34.70
2018-05-09T07:33:35.554Z,35.00
2018-05-09T07:39:09.897Z,35.90
2018-05-09T07:41:37.025Z,37.30
2018-05-09T07:44:04.176Z,38.10
2018-05-09T07:46:30.583Z,38.10
2018-05-09T07:48:57.025Z,38.70
2018-05-09T07:51:23.471Z,39.10
2018-05-09T07:53:49.885Z,39.30
2018-05-09T07:56:16.324Z,39.50
2018-05-09T07:58:42.710Z,40.00
2018-05-09T08:01:09.146Z,40.20
2018-05-09T08:03:35.571Z,41.00
2018-05-09T08:06:02.883Z,41.50
2018-05-09T08:08:30.014Z,41.10
2018-05-09T08:10:56.448Z,41.10
2018-05-09T08:13:22.848Z,40.60
2018-05-09T08:15:49.269Z,40.80
2018-05-09T08:18:16.400Z,41.70
2018-05-09T08:20:43.554Z,42.90
2018-05-09T08:23:10.708Z,43.90
2018-05-09T08:25:37.832Z,44.90
2018-05-09T08:28:05.789Z,45.80
2018-05-09T08:30:32.274Z,45.80
2018-05-09T08:32:59.437Z,46.50
2018-05-09T08:35:25.881Z,46.50
2018-05-09T08:37:52.355Z,46.80
2018-05-09T08:40:18.764Z,47.00
2018-05-09T08:42:45.169Z,46.80
2018-05-09T08:45:11.603Z,46.30
2018-05-09T08:47:37.992Z,45.50
2018-05-09T08:50:04.381Z,45.10
2018-05-09T08:52:30.838Z,44.20
2018-05-09T08:54:57.282Z,42.50
2018-05-09T08:57:23.692Z,40.80
2018-05-09T08:59:50.106Z,38.80
2018-05-09T09:02:16.528Z,37.00
2018-05-09T09:04:42.964Z,35.60
2018-05-09T09:07:09.361Z,34.40
2018-05-09T09:09:36.489Z,32.60
2018-05-09T09:12:02.887Z,32.50
2018-05-09T09:14:29.385Z,32.00
2018-05-09T09:16:55.811Z,31.60
2018-05-09T09:19:23.044Z,31.00
2018-05-09T09:21:49.512Z,30.90
2018-05-09T09:24:16.022Z,30.60
2018-05-09T09:26:43.198Z,30.20
2018-05-09T09:29:10.416Z,29.90
2018-05-09T09:31:36.798Z,29.80
2018-05-09T09:34:03.210Z,29.70
2018-05-09T09:36:30.373Z,29.40
2018-05-09T09:38:56.771Z,29.40
2018-05-09T09:41:23.172Z,29.20
2018-05-09T09:43:49.592Z,29.10
2018-05-09T09:46:16.073Z,28.80
2018-05-09T09:48:43.268Z,28.50
2018-05-09T09:51:10.568Z,28.40
2018-05-09T09:53:36.960Z,28.40
2018-05-09T09:56:03.348Z,28.30
2018-05-09T09:58:29.874Z,28.20
2018-05-09T10:00:57.026Z,28.20
2018-05-09T10:03:24.180Z,28.40
2018-05-09T10:05:50.607Z,28.40
2018-05-09T10:08:17.018Z,28.60
2018-05-09T10:10:43.449Z,28.70
2018-05-09T10:13:09.878Z,28.70
2018-05-09T10:15:36.269Z,28.70
2018-05-09T10:18:02.661Z,28.60
2018-05-09T10:20:29.087Z,28.50
2018-05-09T10:22:55.492Z,28.50
2018-05-09T10:25:21.921Z,28.30
2018-05-09T10:27:48.506Z,28.10
2018-05-09T10:30:15.686Z,27.80
2018-05-09T10:32:42.847Z,27.80
2018-05-09T10:35:09.319Z,27.80
2018-05-09T10:37:35.746Z,27.90
2018-05-09T10:40:02.213Z,27.90
2018-05-09T10:42:29.027Z,28.00
2018-05-09T10:44:55.852Z,27.80
2018-05-09T10:47:22.282Z,27.70
2018-05-09T10:49:48.738Z,27.50
2018-05-09T10:52:15.170Z,27.40
2018-05-09T10:54:41.584Z,27.30
2018-05-09T10:57:08.045Z,27.10
2018-05-09T10:59:34.572Z,27.10
2018-05-09T11:02:00.958Z,27.30
2018-05-09T11:04:27.393Z,27.30
2018-05-09T11:06:53.825Z,27.20
2018-05-09T11:09:20.246Z,27.20
2018-05-09T11:11:47.459Z,27.20
2018-05-09T11:14:13.866Z,27.20
2018-05-09T11:16:40.284Z,27.60
2018-05-09T11:19:06.780Z,27.90
2018-05-09T11:21:33.175Z,27.90
2018-05-09T11:23:59.575Z,28.00
2018-05-09T11:26:26.066Z,28.10
2018-05-09T11:28:52.509Z,28.20
2018-05-09T11:31:18.916Z,28.20
2018-05-09T11:33:45.354Z,28.30
2018-05-09T11:36:11.754Z,28.30
2018-05-09T11:38:38.249Z,28.40
2018-05-09T11:41:05.468Z,28.50
2018-05-09T11:43:31.887Z,28.50
2018-05-09T11:45:58.382Z,28.70
2018-05-09T11:48:25.550Z,28.50
2018-05-09T11:50:52.694Z,28.40
2018-05-09T11:53:19.123Z,28.40
2018-05-09T11:55:45.610Z,28.30
2018-05-09T11:58:12.036Z,28.20
2018-05-09T12:00:38.439Z,28.00
2018-05-09T12:03:04.893Z,27.90
2018-05-09T12:05:31.302Z,27.70
2018-05-09T12:07:58.457Z,27.40
2018-05-09T12:10:24.945Z,27.40
2018-05-09T12:12:51.333Z,27.40
2018-05-09T12:15:17.747Z,27.40
2018-05-09T12:17:44.180Z,27.50
2018-05-09T12:20:10.614Z,27.70
2018-05-09T12:22:37.012Z,27.70
2018-05-09T12:25:04.190Z,27.70
2018-05-09T12:27:30.669Z,27.70
2018-05-09T12:29:57.131Z,27.70
2018-05-09T12:32:23.554Z,27.70
2018-05-09T12:34:51.498Z,27.60
2018-05-09T12:37:17.967Z,27.60
2018-05-09T12:39:45.139Z,27.50
2018-05-09T12:42:12.365Z,27.50
2018-05-09T12:44:38.781Z,27.50
2018-05-09T12:47:05.235Z,27.50
2018-05-09T12:49:31.612Z,27.60
2018-05-09T12:51:58.038Z,27.70
2018-05-09T12:54:25.225Z,28.10
2018-05-09T12:56:51.679Z,28.10
2018-05-09T12:59:18.084Z,28.10
2018-05-09T13:01:44.537Z,28.20
2018-05-09T13:04:10.995Z,28.30
2018-05-09T13:06:38.179Z,28.30
2018-05-09T13:09:04.768Z,28.30
2018-05-09T13:11:31.168Z,28.30
2018-05-09T13:13:57.634Z,28.20
2018-05-09T13:16:24.894Z,28.00
2018-05-09T13:18:51.352Z,28.00
2018-05-09T13:21:17.782Z,28.00
2018-05-09T13:23:45.010Z,27.80
2018-05-09T13:26:12.189Z,27.80
2018-05-09T13:28:39.350Z,27.80
2018-05-09T13:31:06.542Z,27.70
2018-05-09T13:33:32.993Z,27.70
2018-05-09T13:35:59.376Z,27.70
2018-05-09T13:38:25.831Z,27.60
2018-05-09T13:40:52.235Z,27.70
2018-05-09T13:43:18.648Z,27.90
2018-05-09T13:45:45.845Z,28.30
2018-05-09T13:48:12.270Z,28.30
2018-05-09T13:50:38.740Z,28.50
2018-05-09T13:53:05.216Z,28.70
2018-05-09T13:55:31.716Z,28.90
2018-05-09T13:57:58.122Z,28.90
2018-05-09T14:00:24.564Z,28.80
2018-05-09T14:02:50.990Z,28.80
2018-05-09T14:05:17.851Z,28.60
2018-05-09T14:07:45.319Z,28.50
2018-05-09T14:10:11.949Z,28.50
2018-05-09T14:12:38.963Z,28.20
2018-05-09T14:15:05.577Z,28.00
2018-05-09T14:17:34.301Z,27.90
2018-05-09T14:20:00.923Z,27.70
2018-05-09T14:22:27.379Z,27.50
2018-05-09T14:24:53.794Z,27.40
2018-05-09T14:27:20.237Z,27.30
2018-05-09T14:29:46.674Z,27.20
2018-05-09T14:32:13.148Z,27.00
2018-05-09T14:34:40.283Z,26.80
2018-05-09T14:37:07.536Z,26.70
2018-05-09T14:39:34.718Z,26.70
2018-05-09T14:42:01.145Z,26.70
2018-05-09T14:44:27.702Z,26.80
2018-05-09T14:46:54.191Z,26.80
2018-05-09T14:49:20.619Z,26.80
2018-05-09T14:51:47.081Z,26.70
2018-05-09T14:54:13.488Z,26.60
2018-05-09T14:56:39.925Z,26.50
2018-05-09T14:59:06.432Z,26.40
2018-05-09T15:01:32.855Z,26.40
2018-05-09T15:03:59.346Z,26.40
2018-05-09T15:06:25.851Z,26.20
2018-05-09T15:08:52.250Z,26.20
2018-05-09T15:11:18.669Z,26.20
2018-05-09T15:13:45.143Z,26.30
2018-05-09T15:16:11.603Z,26.30
2018-05-09T15:18:38.765Z,26.40
2018-05-09T15:21:05.179Z,26.40
2018-05-09T15:23:32.742Z,26.60
2018-05-09T15:25:59.177Z,26.60
2018-05-09T15:28:26.343Z,26.80
2018-05-09T15:30:52.838Z,26.80
2018-05-09T15:33:19.260Z,26.90
2018-05-09T15:35:45.732Z,27.00
2018-05-09T15:38:12.196Z,27.00
2018-05-09T15:40:38.638Z,27.00
2018-05-09T15:43:05.127Z,27.00
2018-05-09T15:45:31.682Z,27.00
2018-05-09T15:47:58.116Z,27.00
2018-05-09T15:50:24.598Z,26.80
2018-05-09T15:52:51.043Z,26.80
2018-05-09T15:55:18.291Z,26.70
2018-05-09T15:57:45.649Z,26.70
2018-05-09T16:00:13.114Z,26.60
2018-05-09T16:02:39.715Z,26.60
2018-05-09T16:05:06.372Z,26.60
2018-05-09T16:07:32.777Z,26.50
2018-05-09T16:09:59.308Z,26.50
2018-05-09T16:12:25.779Z,26.40
2018-05-09T16:14:52.190Z,26.40
2018-05-09T16:17:18.659Z,26.40
2018-05-09T16:19:45.947Z,26.30
2018-05-09T16:22:12.338Z,26.30
2018-05-09T16:24:39.477Z,26.20
2018-05-09T16:27:05.952Z,26.20
2018-05-09T16:29:32.376Z,26.10
2018-05-09T16:31:58.761Z,26.00
2018-05-09T16:34:26.022Z,25.90
2018-05-09T16:36:52.441Z,25.90
2018-05-09T16:39:18.857Z,25.90
2018-05-09T16:41:45.343Z,25.80
2018-05-09T16:44:11.729Z,25.80
2018-05-09T16:46:38.232Z,25.80
2018-05-09T16:49:04.773Z,25.70
2018-05-09T16:51:31.317Z,25.80
2018-05-09T16:53:57.812Z,25.80
2018-05-09T16:56:24.976Z,25.80
2018-05-09T16:58:51.387Z,25.80
2018-05-09T17:01:18.645Z,25.70
2018-05-09T17:03:45.098Z,25.70
2018-05-09T17:06:11.499Z,25.60
2018-05-09T17:08:37.995Z,25.70
2018-05-09T17:11:04.414Z,25.60
2018-05-09T17:13:31.539Z,25.50
2018-05-09T17:15:57.975Z,25.50
2018-05-09T17:18:24.445Z,25.40
2018-05-09T17:20:51.567Z,25.40
2018-05-09T17:23:18.781Z,25.30
2018-05-09T17:25:45.209Z,25.30
2018-05-09T17:28:11.618Z,25.20
2018-05-09T17:30:38.074Z,25.20
2018-05-09T17:33:06.077Z,25.00
2018-05-09T17:35:32.477Z,25.00
2018-05-09T17:37:59.402Z,25.00
2018-05-09T17:40:26.343Z,25.00
2018-05-09T17:42:53.101Z,24.90
2018-05-09T17:45:20.473Z,24.80
2018-05-09T17:47:48.569Z,24.70
2018-05-09T17:50:15.080Z,24.70
2018-05-09T17:52:41.553Z,24.70
2018-05-09T17:55:08.739Z,24.60
2018-05-09T17:57:35.166Z,24.60
2018-05-09T18:00:01.837Z,24.60
2018-05-09T18:02:28.404Z,24.50
2018-05-09T18:04:54.866Z,24.40
2018-05-09T18:07:22.065Z,24.30
2018-05-09T18:09:49.470Z,24.20
2018-05-09T18:12:15.894Z,24.20
2018-05-09T18:14:42.418Z,24.10
2018-05-09T18:17:08.884Z,24.10
2018-05-09T18:19:36.172Z,24.00
2018-05-09T18:22:02.660Z,24.00
2018-05-09T18:24:29.190Z,23.90
2018-05-09T18:26:55.637Z,23.80
2018-05-09T18:29:22.234Z,23.70
2018-05-09T18:31:48.687Z,23.60
2018-05-09T18:34:15.859Z,23.40
2018-05-09T18:36:42.289Z,23.40
2018-05-09T18:39:09.538Z,23.20
2018-05-09T18:41:35.984Z,23.20
2018-05-09T18:44:02.422Z,23.20
2018-05-09T18:46:29.045Z,23.20
2018-05-09T18:48:55.470Z,23.10
2018-05-09T18:51:21.875Z,23.10
2018-05-09T18:53:48.407Z,23.00
2018-05-09T18:56:14.833Z,23.00
2018-05-09T18:58:41.260Z,23.00
2018-05-09T19:01:07.729Z,23.00
2018-05-09T19:03:34.889Z,22.80
2018-05-09T19:06:02.052Z,22.70
2018-05-09T19:08:28.526Z,22.70
2018-05-09T19:10:54.975Z,22.70
2018-05-09T19:13:21.370Z,22.60
2018-05-09T19:15:47.792Z,22.60
2018-05-09T19:18:14.205Z,22.40
2018-05-09T19:20:42.850Z,22.20
2018-05-09T19:23:09.349Z,22.10
2018-05-09T19:25:35.732Z,22.10
2018-05-09T19:28:02.937Z,21.90
2018-05-09T19:30:29.821Z,21.90
2018-05-09T19:32:56.234Z,21.80
2018-05-09T19:35:22.658Z,21.70
2018-05-09T19:37:49.174Z,21.50
2018-05-09T19:40:15.674Z,21.50
2018-05-09T19:42:42.817Z,21.40
2018-05-09T19:45:09.997Z,21.40
2018-05-09T19:47:36.413Z,21.40
2018-05-09T19:50:03.026Z,21.40
2018-05-09T19:52:29.882Z,21.40
2018-05-09T19:54:57.135Z,21.30
2018-05-09T19:57:24.308Z,21.20
2018-05-09T19:59:51.014Z,21.20
2018-05-09T20:02:17.415Z,21.20
2018-05-09T20:04:43.854Z,21.20
2018-05-09T20:07:10.294Z,21.10
2018-05-09T20:09:36.720Z,21.10
2018-05-09T20:12:03.282Z,21.10
2018-05-09T20:14:30.566Z,21.10
2018-05-09T20:16:57.017Z,21.00
2018-05-09T20:19:23.474Z,21.10
2018-05-09T20:21:49.971Z,21.10
2018-05-09T20:24:16.381Z,21.00
2018-05-09T20:26:43.546Z,21.10
2018-05-09T20:29:10.767Z,21.40
2018-05-09T20:31:56.263Z,21.40
2018-05-09T20:34:23.539Z,21.50
2018-05-09T20:36:50.004Z,21.50
2018-05-09T20:39:16.384Z,21.50
2018-05-09T20:41:42.860Z,21.50
2018-05-09T20:44:09.265Z,21.60
2018-05-09T20:46:35.704Z,21.60
2018-05-09T20:49:02.910Z,21.70
2018-05-09T20:51:41.602Z,21.70
2018-05-09T20:54:08.400Z,21.80
2018-05-09T20:56:35.601Z,21.80
2018-05-09T20:59:02.052Z,21.80
2018-05-09T21:01:40.849Z,21.80
2018-05-09T21:04:07.264Z,21.80
2018-05-09T21:06:33.723Z,21.80
2018-05-09T21:09:00.297Z,21.70
2018-05-09T21:11:26.741Z,21.70
2018-05-09T21:13:53.170Z,21.60
2018-05-09T21:16:20.377Z,21.50
2018-05-09T21:18:46.830Z,21.50
2018-05-09T21:21:13.239Z,21.50
2018-05-09T21:23:39.681Z,21.40
2018-05-09T21:26:06.124Z,21.30
2018-05-09T21:28:32.681Z,21.30
2018-05-09T21:30:59.115Z,21.20
2018-05-09T21:33:26.369Z,21.30
2018-05-09T21:35:52.772Z,21.20
2018-05-09T21:38:19.246Z,21.20
2018-05-09T21:40:46.423Z,21.20
2018-05-09T21:43:12.864Z,21.10
2018-05-09T21:45:39.336Z,21.20
2018-05-09T21:48:05.772Z,21.20
2018-05-09T21:50:32.224Z,21.20
2018-05-09T21:52:58.755Z,21.20
2018-05-09T21:55:25.211Z,21.20
2018-05-09T21:57:51.627Z,21.20
2018-05-09T22:00:18.876Z,21.10
2018-05-09T22:02:45.306Z,21.10
2018-05-09T22:05:11.670Z,21.00
2018-05-09T22:07:38.126Z,21.00
2018-05-09T22:10:04.548Z,21.00
2018-05-09T22:12:31.877Z,20.90
2018-05-09T22:14:58.309Z,20.80
2018-05-09T22:17:24.743Z,20.80
2018-05-09T22:19:51.257Z,20.80
2018-05-09T22:22:18.691Z,20.80
2018-05-09T22:24:45.097Z,20.70
2018-05-09T22:27:11.582Z,20.80
2018-05-09T22:32:11.001Z,20.60
2018-05-09T22:34:37.419Z,20.60
2018-05-09T22:37:03.938Z,20.60
2018-05-09T22:39:30.341Z,20.50
2018-05-09T22:41:56.755Z,20.50
2018-05-09T22:44:23.156Z,20.40
2018-05-09T22:46:49.550Z,20.40
2018-05-09T22:49:15.984Z,20.30
2018-05-09T22:51:42.528Z,20.30
2018-05-09T22:54:08.931Z,20.30
2018-05-09T22:56:35.341Z,20.20
2018-05-09T22:59:02.658Z,20.20
2018-05-09T23:01:29.103Z,20.10
2018-05-09T23:03:55.500Z,20.10
2018-05-09T23:06:21.948Z,20.00
2018-05-09T23:08:48.362Z,20.00
2018-05-09T23:11:14.762Z,20.00
2018-05-09T23:13:41.964Z,19.90
2018-05-09T23:16:08.375Z,19.90
2018-05-09T23:18:34.816Z,19.90
2018-05-09T23:21:01.296Z,19.80
2018-05-09T23:23:27.738Z,19.80
2018-05-09T23:25:54.131Z,19.80
2018-05-09T23:28:20.570Z,19.80
2018-05-09T23:30:46.957Z,19.70
2018-05-09T23:33:14.146Z,19.70
2018-05-09T23:35:40.621Z,19.70
2018-05-09T23:38:07.799Z,19.70
2018-05-09T23:40:34.981Z,19.70
2018-05-09T23:43:02.116Z,19.60
2018-05-09T23:45:28.545Z,19.60
2018-05-09T23:47:55.041Z,19.60
2018-05-09T23:50:21.494Z,19.60
2018-05-09T23:52:48.008Z,19.60
2018-05-09T23:55:15.893Z,19.70
2018-05-09T23:57:43.070Z,19.80
